sensor_id;sensor_type;location;lat;lon;timestamp;P1;durP1;ratioP1;P2;durP2;ratioP2
21519;SDS011;10921;53.614;9.882;2022-11-15T00:00:55;78.53;;;51.85;;
21519;SDS011;10921;53.614;9.882;2022-11-15T00:03:22;80.88;;;50.85;;
21519;SDS011;10921;53.614;9.882;2022-11-15T00:05:53;78.93;;;50.03;;
21519;SDS011;10921;53.614;9.882;2022-11-15T00:08:20;76.00;;;49.85;;
21519;SDS011;10921;53.614;9.882;2022-11-15T00:10:56;75.93;;;50.13;;
21519;SDS011;10921;53.614;9.882;2022-11-15T00:13:24;87.30;;;53.13;;
21519;SDS011;10921;53.614;9.882;2022-11-15T00:15:51;79.80;;;52.58;;
21519;SDS011;10921;53.614;9.882;2022-11-15T00:18:18;80.20;;;53.35;;
21519;SDS011;10921;53.614;9.882;2022-11-15T00:20:45;84.93;;;54.75;;
21519;SDS011;10921;53.614;9.882;2022-11-15T00:23:11;77.57;;;51.20;;
21519;SDS011;10921;53.614;9.882;2022-11-15T00:25:38;78.72;;;51.35;;
21519;SDS011;10921;53.614;9.882;2022-11-15T00:28:04;83.68;;;54.83;;
21519;SDS011;10921;53.614;9.882;2022-11-15T00:30:31;81.57;;;53.58;;
21519;SDS011;10921;53.614;9.882;2022-11-15T00:33:01;83.85;;;53.05;;
21519;SDS011;10921;53.614;9.882;2022-11-15T00:35:30;80.95;;;52.08;;
21519;SDS011;10921;53.614;9.882;2022-11-15T00:37:58;83.53;;;52.10;;
21519;SDS011;10921;53.614;9.882;2022-11-15T00:40:25;77.55;;;49.67;;
21519;SDS011;10921;53.614;9.882;2022-11-15T00:42:51;80.13;;;49.53;;
21519;SDS011;10921;53.614;9.882;2022-11-15T00:45:20;82.10;;;51.22;;
21519;SDS011;10921;53.614;9.882;2022-11-15T00:47:46;76.88;;;49.75;;
21519;SDS011;10921;53.614;9.882;2022-11-15T00:50:13;78.70;;;48.70;;
21519;SDS011;10921;53.614;9.882;2022-11-15T00:52:40;75.93;;;48.28;;
21519;SDS011;10921;53.614;9.882;2022-11-15T00:55:08;80.28;;;50.22;;
21519;SDS011;10921;53.614;9.882;2022-11-15T00:57:40;76.32;;;48.10;;
21519;SDS011;10921;53.614;9.882;2022-11-15T01:00:06;78.65;;;49.03;;
21519;SDS011;10921;53.614;9.882;2022-11-15T01:02:34;70.78;;;47.25;;
21519;SDS011;10921;53.614;9.882;2022-11-15T01:05:01;81.63;;;50.55;;
21519;SDS011;10921;53.614;9.882;2022-11-15T01:07:27;68.97;;;45.45;;
21519;SDS011;10921;53.614;9.882;2022-11-15T01:09:54;68.47;;;44.67;;
21519;SDS011;10921;53.614;9.882;2022-11-15T01:12:20;69.28;;;45.28;;
21519;SDS011;10921;53.614;9.882;2022-11-15T01:14:46;69.07;;;44.60;;
21519;SDS011;10921;53.614;9.882;2022-11-15T01:17:13;65.70;;;45.28;;
21519;SDS011;10921;53.614;9.882;2022-11-15T01:19:39;71.45;;;46.00;;
21519;SDS011;10921;53.614;9.882;2022-11-15T01:22:06;67.25;;;44.60;;
21519;SDS011;10921;53.614;9.882;2022-11-15T01:24:32;67.63;;;44.80;;
21519;SDS011;10921;53.614;9.882;2022-11-15T01:26:59;66.88;;;45.65;;
21519;SDS011;10921;53.614;9.882;2022-11-15T01:29:25;70.70;;;44.70;;
21519;SDS011;10921;53.614;9.882;2022-11-15T01:31:52;65.45;;;43.92;;
21519;SDS011;10921;53.614;9.882;2022-11-15T01:34:19;64.28;;;43.92;;
21519;SDS011;10921;53.614;9.882;2022-11-15T01:36:46;65.90;;;43.38;;
21519;SDS011;10921;53.614;9.882;2022-11-15T01:39:12;65.63;;;42.85;;
21519;SDS011;10921;53.614;9.882;2022-11-15T01:41:39;65.63;;;44.00;;
21519;SDS011;10921;53.614;9.882;2022-11-15T01:46:57;68.75;;;44.17;;
21519;SDS011;10921;53.614;9.882;2022-11-15T01:49:27;70.30;;;45.63;;
21519;SDS011;10921;53.614;9.882;2022-11-15T01:51:56;66.80;;;42.63;;
21519;SDS011;10921;53.614;9.882;2022-11-15T01:54:24;64.57;;;42.08;;
21519;SDS011;10921;53.614;9.882;2022-11-15T01:57:24;69.88;;;45.35;;
21519;SDS011;10921;53.614;9.882;2022-11-15T01:59:44;61.75;;;43.17;;
21519;SDS011;10921;53.614;9.882;2022-11-15T02:02:11;71.90;;;45.50;;
21519;SDS011;10921;53.614;9.882;2022-11-15T02:04:47;64.47;;;42.97;;
21519;SDS011;10921;53.614;9.882;2022-11-15T02:07:17;68.28;;;46.45;;
21519;SDS011;10921;53.614;9.882;2022-11-15T02:09:46;72.32;;;46.20;;
21519;SDS011;10921;53.614;9.882;2022-11-15T02:12:14;66.38;;;43.15;;
21519;SDS011;10921;53.614;9.882;2022-11-15T02:14:46;61.92;;;43.13;;
21519;SDS011;10921;53.614;9.882;2022-11-15T02:20:04;62.80;;;43.53;;
21519;SDS011;10921;53.614;9.882;2022-11-15T02:33:03;66.63;;;44.67;;
21519;SDS011;10921;53.614;9.882;2022-11-15T02:41:34;68.88;;;47.10;;
21519;SDS011;10921;53.614;9.882;2022-11-15T02:44:17;65.10;;;46.05;;
21519;SDS011;10921;53.614;9.882;2022-11-15T02:46:52;71.47;;;46.47;;
21519;SDS011;10921;53.614;9.882;2022-11-15T02:49:40;69.10;;;45.78;;
21519;SDS011;10921;53.614;9.882;2022-11-15T02:52:14;71.18;;;46.80;;
21519;SDS011;10921;53.614;9.882;2022-11-15T02:54:58;71.55;;;47.70;;
21519;SDS011;10921;53.614;9.882;2022-11-15T03:05:56;71.72;;;47.33;;
21519;SDS011;10921;53.614;9.882;2022-11-15T03:11:09;68.93;;;47.50;;
21519;SDS011;10921;53.614;9.882;2022-11-15T03:13:43;69.75;;;48.10;;
21519;SDS011;10921;53.614;9.882;2022-11-15T03:16:33;70.18;;;48.22;;
21519;SDS011;10921;53.614;9.882;2022-11-15T03:19:13;70.85;;;46.70;;
21519;SDS011;10921;53.614;9.882;2022-11-15T03:21:51;71.43;;;49.17;;
21519;SDS011;10921;53.614;9.882;2022-11-15T03:24:19;70.85;;;49.88;;
21519;SDS011;10921;53.614;9.882;2022-11-15T03:26:51;80.13;;;50.67;;
21519;SDS011;10921;53.614;9.882;2022-11-15T03:29:22;77.10;;;51.72;;
21519;SDS011;10921;53.614;9.882;2022-11-15T03:32:01;68.43;;;49.40;;
21519;SDS011;10921;53.614;9.882;2022-11-15T03:34:33;78.30;;;50.33;;
21519;SDS011;10921;53.614;9.882;2022-11-15T03:37:14;79.50;;;54.38;;
21519;SDS011;10921;53.614;9.882;2022-11-15T03:39:42;71.57;;;51.67;;
21519;SDS011;10921;53.614;9.882;2022-11-15T03:45:01;74.15;;;51.22;;
21519;SDS011;10921;53.614;9.882;2022-11-15T03:47:36;74.57;;;49.78;;
21519;SDS011;10921;53.614;9.882;2022-11-15T03:50:08;85.65;;;56.72;;
21519;SDS011;10921;53.614;9.882;2022-11-15T03:52:38;82.68;;;56.15;;
21519;SDS011;10921;53.614;9.882;2022-11-15T03:55:08;77.35;;;54.15;;
21519;SDS011;10921;53.614;9.882;2022-11-15T03:57:37;76.65;;;53.03;;
21519;SDS011;10921;53.614;9.882;2022-11-15T04:00:04;74.10;;;53.60;;
21519;SDS011;10921;53.614;9.882;2022-11-15T04:02:31;77.88;;;55.78;;
21519;SDS011;10921;53.614;9.882;2022-11-15T04:04:58;76.32;;;54.63;;
21519;SDS011;10921;53.614;9.882;2022-11-15T04:07:24;77.85;;;54.92;;
21519;SDS011;10921;53.614;9.882;2022-11-15T04:09:51;76.32;;;54.67;;
21519;SDS011;10921;53.614;9.882;2022-11-15T04:12:30;77.22;;;55.58;;
21519;SDS011;10921;53.614;9.882;2022-11-15T04:15:07;84.68;;;55.78;;
21519;SDS011;10921;53.614;9.882;2022-11-15T04:17:52;79.05;;;55.30;;
21519;SDS011;10921;53.614;9.882;2022-11-15T04:20:21;81.97;;;56.33;;
21519;SDS011;10921;53.614;9.882;2022-11-15T04:23:09;77.30;;;55.55;;
21519;SDS011;10921;53.614;9.882;2022-11-15T04:25:58;73.47;;;53.47;;
21519;SDS011;10921;53.614;9.882;2022-11-15T04:28:26;84.78;;;57.05;;
21519;SDS011;10921;53.614;9.882;2022-11-15T04:30:55;77.60;;;56.60;;
21519;SDS011;10921;53.614;9.882;2022-11-15T04:33:22;78.30;;;55.70;;
21519;SDS011;10921;53.614;9.882;2022-11-15T04:35:49;75.90;;;54.60;;
21519;SDS011;10921;53.614;9.882;2022-11-15T04:38:34;81.85;;;57.05;;
21519;SDS011;10921;53.614;9.882;2022-11-15T04:41:02;70.53;;;54.13;;
21519;SDS011;10921;53.614;9.882;2022-11-15T04:43:29;69.85;;;54.30;;
21519;SDS011;10921;53.614;9.882;2022-11-15T04:45:56;70.97;;;53.95;;
21519;SDS011;10921;53.614;9.882;2022-11-15T04:48:23;75.50;;;55.20;;
21519;SDS011;10921;53.614;9.882;2022-11-15T04:50:49;69.70;;;54.15;;
21519;SDS011;10921;53.614;9.882;2022-11-15T04:53:16;71.20;;;53.78;;
21519;SDS011;10921;53.614;9.882;2022-11-15T04:55:45;73.45;;;55.75;;
21519;SDS011;10921;53.614;9.882;2022-11-15T04:58:12;75.38;;;55.72;;
21519;SDS011;10921;53.614;9.882;2022-11-15T05:00:38;70.90;;;54.83;;
21519;SDS011;10921;53.614;9.882;2022-11-15T05:03:06;73.00;;;54.08;;
21519;SDS011;10921;53.614;9.882;2022-11-15T05:05:51;71.20;;;53.03;;
21519;SDS011;10921;53.614;9.882;2022-11-15T05:08:17;70.25;;;54.10;;
21519;SDS011;10921;53.614;9.882;2022-11-15T05:10:44;70.97;;;54.17;;
21519;SDS011;10921;53.614;9.882;2022-11-15T05:13:10;69.93;;;53.35;;
21519;SDS011;10921;53.614;9.882;2022-11-15T05:15:37;68.60;;;53.88;;
21519;SDS011;10921;53.614;9.882;2022-11-15T05:18:04;73.10;;;55.83;;
21519;SDS011;10921;53.614;9.882;2022-11-15T05:20:30;75.68;;;53.70;;
21519;SDS011;10921;53.614;9.882;2022-11-15T05:22:57;68.70;;;54.55;;
21519;SDS011;10921;53.614;9.882;2022-11-15T05:25:23;70.15;;;53.97;;
21519;SDS011;10921;53.614;9.882;2022-11-15T05:27:50;66.95;;;54.63;;
21519;SDS011;10921;53.614;9.882;2022-11-15T05:30:17;67.40;;;54.20;;
21519;SDS011;10921;53.614;9.882;2022-11-15T05:32:44;65.25;;;51.60;;
21519;SDS011;10921;53.614;9.882;2022-11-15T05:35:18;66.03;;;52.13;;
21519;SDS011;10921;53.614;9.882;2022-11-15T05:37:52;70.05;;;53.53;;
21519;SDS011;10921;53.614;9.882;2022-11-15T05:40:18;68.55;;;52.83;;
21519;SDS011;10921;53.614;9.882;2022-11-15T05:42:45;67.32;;;52.00;;
21519;SDS011;10921;53.614;9.882;2022-11-15T05:45:12;69.80;;;53.20;;
21519;SDS011;10921;53.614;9.882;2022-11-15T05:47:40;66.90;;;51.35;;
21519;SDS011;10921;53.614;9.882;2022-11-15T05:50:07;70.22;;;52.22;;
21519;SDS011;10921;53.614;9.882;2022-11-15T05:52:37;63.80;;;50.05;;
21519;SDS011;10921;53.614;9.882;2022-11-15T05:55:07;59.50;;;47.22;;
21519;SDS011;10921;53.614;9.882;2022-11-15T05:57:35;60.38;;;46.08;;
21519;SDS011;10921;53.614;9.882;2022-11-15T06:00:02;62.88;;;48.00;;
21519;SDS011;10921;53.614;9.882;2022-11-15T06:02:29;60.45;;;48.30;;
21519;SDS011;10921;53.614;9.882;2022-11-15T06:04:56;63.70;;;48.63;;
21519;SDS011;10921;53.614;9.882;2022-11-15T06:07:23;64.65;;;46.58;;
21519;SDS011;10921;53.614;9.882;2022-11-15T06:09:49;60.35;;;46.15;;
21519;SDS011;10921;53.614;9.882;2022-11-15T06:12:15;58.08;;;42.22;;
21519;SDS011;10921;53.614;9.882;2022-11-15T06:14:42;61.13;;;43.00;;
21519;SDS011;10921;53.614;9.882;2022-11-15T06:17:08;57.58;;;40.92;;
21519;SDS011;10921;53.614;9.882;2022-11-15T06:19:36;56.17;;;40.15;;
21519;SDS011;10921;53.614;9.882;2022-11-15T06:22:03;54.33;;;39.92;;
21519;SDS011;10921;53.614;9.882;2022-11-15T06:24:29;52.33;;;41.42;;
21519;SDS011;10921;53.614;9.882;2022-11-15T06:26:56;55.38;;;39.05;;
21519;SDS011;10921;53.614;9.882;2022-11-15T06:29:23;53.20;;;39.60;;
21519;SDS011;10921;53.614;9.882;2022-11-15T06:31:49;53.10;;;39.33;;
21519;SDS011;10921;53.614;9.882;2022-11-15T06:34:16;52.00;;;38.10;;
21519;SDS011;10921;53.614;9.882;2022-11-15T06:36:42;46.88;;;37.25;;
21519;SDS011;10921;53.614;9.882;2022-11-15T06:39:09;51.70;;;36.90;;
21519;SDS011;10921;53.614;9.882;2022-11-15T06:41:35;46.80;;;36.85;;
21519;SDS011;10921;53.614;9.882;2022-11-15T06:44:02;52.65;;;36.67;;
21519;SDS011;10921;53.614;9.882;2022-11-15T06:46:29;52.50;;;36.67;;
21519;SDS011;10921;53.614;9.882;2022-11-15T06:48:55;47.00;;;35.75;;
21519;SDS011;10921;53.614;9.882;2022-11-15T06:51:22;49.80;;;35.95;;
21519;SDS011;10921;53.614;9.882;2022-11-15T06:53:48;50.17;;;35.88;;
21519;SDS011;10921;53.614;9.882;2022-11-15T06:56:15;54.60;;;34.83;;
21519;SDS011;10921;53.614;9.882;2022-11-15T06:58:41;47.92;;;33.53;;
21519;SDS011;10921;53.614;9.882;2022-11-15T07:01:09;50.80;;;34.85;;
21519;SDS011;10921;53.614;9.882;2022-11-15T07:03:37;50.05;;;33.75;;
21519;SDS011;10921;53.614;9.882;2022-11-15T07:06:06;51.38;;;34.28;;
21519;SDS011;10921;53.614;9.882;2022-11-15T07:08:33;44.03;;;32.05;;
21519;SDS011;10921;53.614;9.882;2022-11-15T07:11:01;51.15;;;34.67;;
21519;SDS011;10921;53.614;9.882;2022-11-15T07:13:30;43.38;;;31.10;;
21519;SDS011;10921;53.614;9.882;2022-11-15T07:16:02;49.72;;;32.60;;
21519;SDS011;10921;53.614;9.882;2022-11-15T07:18:31;43.03;;;32.03;;
21519;SDS011;10921;53.614;9.882;2022-11-15T07:21:04;46.05;;;32.38;;
21519;SDS011;10921;53.614;9.882;2022-11-15T07:23:31;44.20;;;33.03;;
21519;SDS011;10921;53.614;9.882;2022-11-15T07:25:59;44.53;;;32.30;;
21519;SDS011;10921;53.614;9.882;2022-11-15T07:28:26;50.92;;;33.67;;
21519;SDS011;10921;53.614;9.882;2022-11-15T07:30:53;43.72;;;31.77;;
21519;SDS011;10921;53.614;9.882;2022-11-15T07:33:20;43.35;;;31.70;;
21519;SDS011;10921;53.614;9.882;2022-11-15T07:35:47;42.63;;;32.13;;
21519;SDS011;10921;53.614;9.882;2022-11-15T07:38:17;44.43;;;31.23;;
21519;SDS011;10921;53.614;9.882;2022-11-15T07:40:46;49.07;;;31.60;;
21519;SDS011;10921;53.614;9.882;2022-11-15T07:43:13;45.00;;;30.95;;
21519;SDS011;10921;53.614;9.882;2022-11-15T07:45:43;40.50;;;30.67;;
21519;SDS011;10921;53.614;9.882;2022-11-15T07:48:11;47.53;;;31.92;;
21519;SDS011;10921;53.614;9.882;2022-11-15T07:50:41;43.05;;;31.13;;
21519;SDS011;10921;53.614;9.882;2022-11-15T07:55:35;44.75;;;30.30;;
21519;SDS011;10921;53.614;9.882;2022-11-15T07:58:03;54.40;;;33.10;;
21519;SDS011;10921;53.614;9.882;2022-11-15T08:00:34;46.33;;;32.00;;
21519;SDS011;10921;53.614;9.882;2022-11-15T08:03:05;43.80;;;30.20;;
21519;SDS011;10921;53.614;9.882;2022-11-15T08:05:33;46.17;;;29.33;;
21519;SDS011;10921;53.614;9.882;2022-11-15T08:08:01;45.10;;;31.40;;
21519;SDS011;10921;53.614;9.882;2022-11-15T08:10:28;41.78;;;31.20;;
21519;SDS011;10921;53.614;9.882;2022-11-15T08:12:59;52.65;;;33.38;;
21519;SDS011;10921;53.614;9.882;2022-11-15T08:15:28;44.92;;;32.70;;
21519;SDS011;10921;53.614;9.882;2022-11-15T08:17:58;47.75;;;32.42;;
21519;SDS011;10921;53.614;9.882;2022-11-15T08:20:27;44.90;;;32.25;;
21519;SDS011;10921;53.614;9.882;2022-11-15T08:22:58;41.67;;;30.90;;
21519;SDS011;10921;53.614;9.882;2022-11-15T08:25:26;48.97;;;32.38;;
21519;SDS011;10921;53.614;9.882;2022-11-15T08:27:54;42.92;;;30.55;;
21519;SDS011;10921;53.614;9.882;2022-11-15T08:30:22;38.80;;;29.85;;
21519;SDS011;10921;53.614;9.882;2022-11-15T08:32:50;38.58;;;30.10;;
21519;SDS011;10921;53.614;9.882;2022-11-15T08:35:19;41.63;;;30.50;;
21519;SDS011;10921;53.614;9.882;2022-11-15T08:37:53;37.78;;;28.92;;
21519;SDS011;10921;53.614;9.882;2022-11-15T08:40:20;39.65;;;30.40;;
21519;SDS011;10921;53.614;9.882;2022-11-15T08:42:47;40.10;;;29.50;;
21519;SDS011;10921;53.614;9.882;2022-11-15T08:45:14;41.42;;;30.08;;
21519;SDS011;10921;53.614;9.882;2022-11-15T08:47:41;38.22;;;28.73;;
21519;SDS011;10921;53.614;9.882;2022-11-15T08:50:08;37.53;;;29.50;;
21519;SDS011;10921;53.614;9.882;2022-11-15T08:52:34;39.30;;;30.17;;
21519;SDS011;10921;53.614;9.882;2022-11-15T08:55:01;40.30;;;30.63;;
21519;SDS011;10921;53.614;9.882;2022-11-15T08:57:28;38.53;;;29.85;;
21519;SDS011;10921;53.614;9.882;2022-11-15T08:59:56;39.67;;;28.17;;
21519;SDS011;10921;53.614;9.882;2022-11-15T09:02:23;36.45;;;28.55;;
21519;SDS011;10921;53.614;9.882;2022-11-15T09:04:49;42.92;;;29.70;;
21519;SDS011;10921;53.614;9.882;2022-11-15T09:07:16;40.85;;;28.80;;
21519;SDS011;10921;53.614;9.882;2022-11-15T09:09:43;36.95;;;29.30;;
21519;SDS011;10921;53.614;9.882;2022-11-15T09:12:10;38.97;;;29.30;;
21519;SDS011;10921;53.614;9.882;2022-11-15T09:14:36;37.92;;;28.70;;
21519;SDS011;10921;53.614;9.882;2022-11-15T09:17:03;38.90;;;28.23;;
21519;SDS011;10921;53.614;9.882;2022-11-15T09:19:33;34.70;;;27.25;;
21519;SDS011;10921;53.614;9.882;2022-11-15T09:21:59;43.75;;;30.08;;
21519;SDS011;10921;53.614;9.882;2022-11-15T09:24:26;36.03;;;27.05;;
21519;SDS011;10921;53.614;9.882;2022-11-15T09:26:55;38.58;;;28.75;;
21519;SDS011;10921;53.614;9.882;2022-11-15T09:29:22;31.90;;;25.35;;
21519;SDS011;10921;53.614;9.882;2022-11-15T09:31:48;33.20;;;25.98;;
21519;SDS011;10921;53.614;9.882;2022-11-15T09:34:17;36.00;;;27.55;;
21519;SDS011;10921;53.614;9.882;2022-11-15T09:36:44;38.78;;;29.08;;
21519;SDS011;10921;53.614;9.882;2022-11-15T09:39:10;37.90;;;27.17;;
21519;SDS011;10921;53.614;9.882;2022-11-15T09:49:36;34.17;;;26.77;;
21519;SDS011;10921;53.614;9.882;2022-11-15T09:52:03;31.70;;;25.92;;
21519;SDS011;10921;53.614;9.882;2022-11-15T09:54:34;32.40;;;26.05;;
21519;SDS011;10921;53.614;9.882;2022-11-15T09:57:21;32.53;;;25.77;;
21519;SDS011;10921;53.614;9.882;2022-11-15T10:03:10;36.28;;;26.77;;
21519;SDS011;10921;53.614;9.882;2022-11-15T10:05:43;38.25;;;26.85;;
21519;SDS011;10921;53.614;9.882;2022-11-15T10:11:01;31.98;;;26.38;;
21519;SDS011;10921;53.614;9.882;2022-11-15T10:13:55;35.17;;;25.50;;
21519;SDS011;10921;53.614;9.882;2022-11-15T10:16:43;33.28;;;27.00;;
21519;SDS011;10921;53.614;9.882;2022-11-15T10:19:26;34.47;;;26.02;;
21519;SDS011;10921;53.614;9.882;2022-11-15T10:22:18;31.65;;;25.85;;
21519;SDS011;10921;53.614;9.882;2022-11-15T10:24:52;37.33;;;26.77;;
21519;SDS011;10921;53.614;9.882;2022-11-15T10:27:30;33.95;;;25.00;;
21519;SDS011;10921;53.614;9.882;2022-11-15T10:29:56;32.83;;;24.73;;
21519;SDS011;10921;53.614;9.882;2022-11-15T10:32:23;33.67;;;27.05;;
21519;SDS011;10921;53.614;9.882;2022-11-15T10:34:49;31.92;;;24.35;;
21519;SDS011;10921;53.614;9.882;2022-11-15T10:37:29;36.65;;;25.83;;
21519;SDS011;10921;53.614;9.882;2022-11-15T10:43:04;31.27;;;25.73;;
21519;SDS011;10921;53.614;9.882;2022-11-15T10:45:42;30.98;;;25.38;;
21519;SDS011;10921;53.614;9.882;2022-11-15T10:50:39;37.05;;;26.33;;
21519;SDS011;10921;53.614;9.882;2022-11-15T10:56:00;31.17;;;25.90;;
21519;SDS011;10921;53.614;9.882;2022-11-15T11:03:39;34.13;;;25.17;;
21519;SDS011;10921;53.614;9.882;2022-11-15T11:06:08;33.85;;;24.45;;
21519;SDS011;10921;53.614;9.882;2022-11-15T11:09:20;37.88;;;24.15;;
21519;SDS011;10921;53.614;9.882;2022-11-15T11:11:48;30.65;;;24.10;;
21519;SDS011;10921;53.614;9.882;2022-11-15T11:14:26;30.88;;;23.77;;
21519;SDS011;10921;53.614;9.882;2022-11-15T11:22:19;27.08;;;23.15;;
21519;SDS011;10921;53.614;9.882;2022-11-15T11:30:40;27.50;;;23.67;;
21519;SDS011;10921;53.614;9.882;2022-11-15T11:33:29;31.65;;;23.50;;
21519;SDS011;10921;53.614;9.882;2022-11-15T11:39:16;29.25;;;23.25;;
21519;SDS011;10921;53.614;9.882;2022-11-15T11:44:45;26.73;;;22.75;;
21519;SDS011;10921;53.614;9.882;2022-11-15T11:47:31;29.52;;;22.90;;
21519;SDS011;10921;53.614;9.882;2022-11-15T11:50:11;32.65;;;23.20;;
21519;SDS011;10921;53.614;9.882;2022-11-15T11:55:47;27.70;;;22.83;;
21519;SDS011;10921;53.614;9.882;2022-11-15T12:00:56;31.63;;;21.73;;
21519;SDS011;10921;53.614;9.882;2022-11-15T12:03:45;28.45;;;21.90;;
21519;SDS011;10921;53.614;9.882;2022-11-15T12:06:20;33.83;;;22.98;;
21519;SDS011;10921;53.614;9.882;2022-11-15T12:08:56;30.27;;;22.42;;
21519;SDS011;10921;53.614;9.882;2022-11-15T12:11:42;28.60;;;22.42;;
21519;SDS011;10921;53.614;9.882;2022-11-15T12:17:03;27.55;;;22.67;;
21519;SDS011;10921;53.614;9.882;2022-11-15T12:19:30;24.05;;;21.30;;
21519;SDS011;10921;53.614;9.882;2022-11-15T12:24:36;25.52;;;21.40;;
21519;SDS011;10921;53.614;9.882;2022-11-15T12:27:32;25.95;;;21.73;;
21519;SDS011;10921;53.614;9.882;2022-11-15T12:33:00;24.23;;;20.85;;
21519;SDS011;10921;53.614;9.882;2022-11-15T12:35:34;22.80;;;20.15;;
21519;SDS011;10921;53.614;9.882;2022-11-15T12:38:11;23.17;;;20.38;;
21519;SDS011;10921;53.614;9.882;2022-11-15T12:41:11;25.90;;;21.33;;
21519;SDS011;10921;53.614;9.882;2022-11-15T12:43:54;22.15;;;19.92;;
21519;SDS011;10921;53.614;9.882;2022-11-15T12:59:53;23.73;;;20.40;;
21519;SDS011;10921;53.614;9.882;2022-11-15T13:02:25;27.95;;;20.15;;
21519;SDS011;10921;53.614;9.882;2022-11-15T13:13:00;23.60;;;20.05;;
21519;SDS011;10921;53.614;9.882;2022-11-15T13:15:33;22.63;;;20.30;;
21519;SDS011;10921;53.614;9.882;2022-11-15T13:21:02;22.85;;;20.55;;
21519;SDS011;10921;53.614;9.882;2022-11-15T13:23:54;24.63;;;20.17;;
21519;SDS011;10921;53.614;9.882;2022-11-15T13:26:21;29.67;;;19.83;;
21519;SDS011;10921;53.614;9.882;2022-11-15T13:28:49;22.60;;;20.20;;
21519;SDS011;10921;53.614;9.882;2022-11-15T13:33:47;21.60;;;19.40;;
21519;SDS011;10921;53.614;9.882;2022-11-15T13:36:24;23.23;;;19.98;;
21519;SDS011;10921;53.614;9.882;2022-11-15T13:38:54;24.02;;;20.10;;
21519;SDS011;10921;53.614;9.882;2022-11-15T13:41:29;28.77;;;20.02;;
21519;SDS011;10921;53.614;9.882;2022-11-15T13:43:58;24.42;;;19.35;;
21519;SDS011;10921;53.614;9.882;2022-11-15T13:46:30;21.77;;;19.48;;
21519;SDS011;10921;53.614;9.882;2022-11-15T13:49:03;23.55;;;19.52;;
21519;SDS011;10921;53.614;9.882;2022-11-15T13:56:44;24.48;;;19.77;;
21519;SDS011;10921;53.614;9.882;2022-11-15T14:02:16;26.10;;;20.25;;
21519;SDS011;10921;53.614;9.882;2022-11-15T14:04:51;20.83;;;18.63;;
21519;SDS011;10921;53.614;9.882;2022-11-15T14:07:20;20.23;;;18.23;;
21519;SDS011;10921;53.614;9.882;2022-11-15T14:09:49;26.10;;;19.05;;
21519;SDS011;10921;53.614;9.882;2022-11-15T14:12:29;20.00;;;18.00;;
21519;SDS011;10921;53.614;9.882;2022-11-15T14:15:17;21.23;;;18.80;;
21519;SDS011;10921;53.614;9.882;2022-11-15T14:18:05;21.08;;;18.88;;
21519;SDS011;10921;53.614;9.882;2022-11-15T14:20:33;21.17;;;18.98;;
21519;SDS011;10921;53.614;9.882;2022-11-15T14:23:05;20.95;;;18.13;;
21519;SDS011;10921;53.614;9.882;2022-11-15T14:25:54;23.75;;;19.52;;
21519;SDS011;10921;53.614;9.882;2022-11-15T14:30:52;22.77;;;18.17;;
21519;SDS011;10921;53.614;9.882;2022-11-15T14:33:28;20.60;;;18.58;;
21519;SDS011;10921;53.614;9.882;2022-11-15T14:36:33;21.08;;;18.83;;
21519;SDS011;10921;53.614;9.882;2022-11-15T14:38:52;22.73;;;17.92;;
21519;SDS011;10921;53.614;9.882;2022-11-15T14:43:47;21.17;;;18.75;;
21519;SDS011;10921;53.614;9.882;2022-11-15T14:46:14;21.20;;;18.90;;
21519;SDS011;10921;53.614;9.882;2022-11-15T14:48:41;25.83;;;18.90;;
21519;SDS011;10921;53.614;9.882;2022-11-15T14:51:15;22.63;;;19.05;;
21519;SDS011;10921;53.614;9.882;2022-11-15T14:53:43;22.33;;;18.70;;
21519;SDS011;10921;53.614;9.882;2022-11-15T14:56:11;20.83;;;18.60;;
21519;SDS011;10921;53.614;9.882;2022-11-15T14:58:38;23.55;;;19.10;;
21519;SDS011;10921;53.614;9.882;2022-11-15T15:01:12;23.23;;;19.20;;
21519;SDS011;10921;53.614;9.882;2022-11-15T15:03:42;24.00;;;19.52;;
21519;SDS011;10921;53.614;9.882;2022-11-15T15:06:10;22.35;;;18.75;;
21519;SDS011;10921;53.614;9.882;2022-11-15T15:08:43;20.83;;;18.45;;
21519;SDS011;10921;53.614;9.882;2022-11-15T15:11:11;24.27;;;18.42;;
21519;SDS011;10921;53.614;9.882;2022-11-15T15:13:41;22.55;;;19.02;;
21519;SDS011;10921;53.614;9.882;2022-11-15T15:16:08;24.85;;;19.20;;
21519;SDS011;10921;53.614;9.882;2022-11-15T15:18:34;21.02;;;18.83;;
21519;SDS011;10921;53.614;9.882;2022-11-15T15:21:01;23.05;;;19.63;;
21519;SDS011;10921;53.614;9.882;2022-11-15T15:23:33;23.48;;;19.38;;
21519;SDS011;10921;53.614;9.882;2022-11-15T15:26:01;22.45;;;19.45;;
21519;SDS011;10921;53.614;9.882;2022-11-15T15:28:28;26.38;;;19.58;;
21519;SDS011;10921;53.614;9.882;2022-11-15T15:31:00;26.10;;;19.92;;
21519;SDS011;10921;53.614;9.882;2022-11-15T15:33:26;22.02;;;18.80;;
21519;SDS011;10921;53.614;9.882;2022-11-15T15:35:53;25.80;;;19.90;;
21519;SDS011;10921;53.614;9.882;2022-11-15T15:38:19;24.55;;;20.25;;
21519;SDS011;10921;53.614;9.882;2022-11-15T15:40:47;27.17;;;20.70;;
21519;SDS011;10921;53.614;9.882;2022-11-15T15:43:16;24.90;;;19.97;;
21519;SDS011;10921;53.614;9.882;2022-11-15T15:45:43;25.25;;;20.40;;
21519;SDS011;10921;53.614;9.882;2022-11-15T15:48:11;25.05;;;19.88;;
21519;SDS011;10921;53.614;9.882;2022-11-15T15:50:39;25.50;;;20.63;;
21519;SDS011;10921;53.614;9.882;2022-11-15T15:53:05;25.00;;;20.20;;
21519;SDS011;10921;53.614;9.882;2022-11-15T15:55:34;23.45;;;20.88;;
21519;SDS011;10921;53.614;9.882;2022-11-15T15:58:01;23.10;;;20.60;;
21519;SDS011;10921;53.614;9.882;2022-11-15T16:00:27;24.75;;;21.05;;
21519;SDS011;10921;53.614;9.882;2022-11-15T16:02:54;27.80;;;21.65;;
21519;SDS011;10921;53.614;9.882;2022-11-15T16:05:21;29.30;;;21.75;;
21519;SDS011;10921;53.614;9.882;2022-11-15T16:07:48;25.33;;;20.13;;
21519;SDS011;10921;53.614;9.882;2022-11-15T16:10:19;30.58;;;20.60;;
21519;SDS011;10921;53.614;9.882;2022-11-15T16:12:46;27.33;;;22.42;;
21519;SDS011;10921;53.614;9.882;2022-11-15T16:15:13;27.63;;;22.02;;
21519;SDS011;10921;53.614;9.882;2022-11-15T16:17:42;31.73;;;23.05;;
21519;SDS011;10921;53.614;9.882;2022-11-15T16:23:06;26.30;;;21.13;;
21519;SDS011;10921;53.614;9.882;2022-11-15T16:25:54;28.98;;;21.65;;
21519;SDS011;10921;53.614;9.882;2022-11-15T16:28:22;27.73;;;20.98;;
21519;SDS011;10921;53.614;9.882;2022-11-15T16:30:59;29.60;;;21.52;;
21519;SDS011;10921;53.614;9.882;2022-11-15T16:33:27;26.52;;;20.77;;
21519;SDS011;10921;53.614;9.882;2022-11-15T16:35:54;29.23;;;21.73;;
21519;SDS011;10921;53.614;9.882;2022-11-15T16:38:20;31.08;;;21.58;;
21519;SDS011;10921;53.614;9.882;2022-11-15T16:40:47;31.00;;;22.45;;
21519;SDS011;10921;53.614;9.882;2022-11-15T16:43:13;27.00;;;21.92;;
21519;SDS011;10921;53.614;9.882;2022-11-15T16:45:40;25.60;;;21.58;;
21519;SDS011;10921;53.614;9.882;2022-11-15T16:48:06;30.75;;;22.50;;
21519;SDS011;10921;53.614;9.882;2022-11-15T16:50:43;31.35;;;21.80;;
21519;SDS011;10921;53.614;9.882;2022-11-15T16:53:09;26.90;;;21.30;;
21519;SDS011;10921;53.614;9.882;2022-11-15T16:55:36;27.02;;;22.05;;
21519;SDS011;10921;53.614;9.882;2022-11-15T16:58:02;26.40;;;20.98;;
21519;SDS011;10921;53.614;9.882;2022-11-15T17:00:29;26.42;;;21.90;;